sensor_id;sensor_type;location;lat;lon;timestamp;pressure;altitude;pressure_sealevel;temperature;humidity
36748;BME280;22716;51.556;5.080;2023-03-03T00:01:31;101687.78;;;2.58;100.00
36748;BME280;22716;51.556;5.080;2023-03-03T00:04:00;101702.47;;;2.59;100.00
36748;BME280;22716;51.556;5.080;2023-03-03T00:06:31;101710.22;;;2.59;100.00
36748;BME280;22716;51.556;5.080;2023-03-03T00:09:00;101709.97;;;2.52;100.00
36748;BME280;22716;51.556;5.080;2023-03-03T00:11:29;101688.66;;;2.35;100.00
36748;BME280;22716;51.556;5.080;2023-03-03T00:13:57;101704.34;;;2.40;100.00
36748;BME280;22716;51.556;5.080;2023-03-03T00:16:29;101707.72;;;2.37;100.00
36748;BME280;22716;51.556;5.080;2023-03-03T00:18:59;101707.59;;;2.34;100.00
36748;BME280;22716;51.556;5.080;2023-03-03T00:21:32;101700.66;;;2.33;100.00
36748;BME280;22716;51.556;5.080;2023-03-03T00:24:18;101713.88;;;2.41;100.00
36748;BME280;22716;51.556;5.080;2023-03-03T00:26:48;101714.03;;;2.45;100.00
36748;BME280;22716;51.556;5.080;2023-03-03T00:29:31;101720.25;;;2.50;100.00
36748;BME280;22716;51.556;5.080;2023-03-03T00:32:17;101716.66;;;2.47;100.00
36748;BME280;22716;51.556;5.080;2023-03-03T00:34:49;101680.53;;;2.24;100.00
36748;BME280;22716;51.556;5.080;2023-03-03T00:37:32;101719.91;;;2.41;100.00
36748;BME280;22716;51.556;5.080;2023-03-03T00:40:13;101716.50;;;2.42;100.00
36748;BME280;22716;51.556;5.080;2023-03-03T00:42:49;101719.06;;;2.41;100.00
36748;BME280;22716;51.556;5.080;2023-03-03T00:45:37;101709.22;;;2.32;100.00
36748;BME280;22716;51.556;5.080;2023-03-03T00:48:24;101717.00;;;2.32;100.00
36748;BME280;22716;51.556;5.080;2023-03-03T00:50:54;101716.25;;;2.35;100.00
36748;BME280;22716;51.556;5.080;2023-03-03T00:53:27;101716.19;;;2.33;100.00
36748;BME280;22716;51.556;5.080;2023-03-03T00:55:57;101709.22;;;2.32;100.00
36748;BME280;22716;51.556;5.080;2023-03-03T00:58:26;101716.94;;;2.31;100.00
36748;BME280;22716;51.556;5.080;2023-03-03T01:00:55;101715.25;;;2.31;100.00
36748;BME280;22716;51.556;5.080;2023-03-03T01:03:25;101715.25;;;2.31;100.00
36748;BME280;22716;51.556;5.080;2023-03-03T01:05:54;101694.34;;;2.25;100.00
36748;BME280;22716;51.556;5.080;2023-03-03T01:08:23;101719.47;;;2.29;100.00
36748;BME280;22716;51.556;5.080;2023-03-03T01:10:56;101726.25;;;2.25;100.00
36748;BME280;22716;51.556;5.080;2023-03-03T01:13:27;101719.97;;;2.19;100.00
36748;BME280;22716;51.556;5.080;2023-03-03T01:15:59;101701.41;;;2.07;100.00
36748;BME280;22716;51.556;5.080;2023-03-03T01:18:29;101726.13;;;2.22;100.00
36748;BME280;22716;51.556;5.080;2023-03-03T01:20:58;101725.06;;;2.17;100.00
36748;BME280;22716;51.556;5.080;2023-03-03T01:23:26;101722.47;;;2.17;100.00
36748;BME280;22716;51.556;5.080;2023-03-03T01:25:58;101725.72;;;2.12;100.00
36748;BME280;22716;51.556;5.080;2023-03-03T01:28:26;101725.78;;;2.13;100.00
36748;BME280;22716;51.556;5.080;2023-03-03T01:30:59;101722.47;;;2.17;100.00
36748;BME280;22716;51.556;5.080;2023-03-03T01:33:29;101721.75;;;2.20;100.00
36748;BME280;22716;51.556;5.080;2023-03-03T01:35:58;101727.50;;;2.13;100.00
36748;BME280;22716;51.556;5.080;2023-03-03T01:38:27;101731.84;;;2.14;100.00
36748;BME280;22716;51.556;5.080;2023-03-03T01:40:59;101734.66;;;2.20;100.00
36748;BME280;22716;51.556;5.080;2023-03-03T01:43:28;101733.59;;;2.15;100.00
36748;BME280;22716;51.556;5.080;2023-03-03T01:46:30;101747.94;;;2.07;100.00
36748;BME280;22716;51.556;5.080;2023-03-03T01:49:02;101741.66;;;2.00;100.00
36748;BME280;22716;51.556;5.080;2023-03-03T01:51:37;101727.78;;;1.98;100.00
36748;BME280;22716;51.556;5.080;2023-03-03T01:54:10;101732.44;;;2.07;100.00
36748;BME280;22716;51.556;5.080;2023-03-03T01:56:43;101730.66;;;2.06;100.00
36748;BME280;22716;51.556;5.080;2023-03-03T01:59:14;101727.25;;;2.07;100.00
36748;BME280;22716;51.556;5.080;2023-03-03T02:01:47;101735.13;;;2.10;100.00
36748;BME280;22716;51.556;5.080;2023-03-03T02:04:16;101723.03;;;2.09;100.00
36748;BME280;22716;51.556;5.080;2023-03-03T02:06:50;101720.19;;;2.03;100.00
36748;BME280;22716;51.556;5.080;2023-03-03T02:09:26;101723.44;;;1.97;100.00
36748;BME280;22716;51.556;5.080;2023-03-03T02:12:05;101727.84;;;2.00;100.00
36748;BME280;22716;51.556;5.080;2023-03-03T02:14:34;101708.59;;;1.92;100.00
36748;BME280;22716;51.556;5.080;2023-03-03T02:17:03;101728.50;;;1.94;100.00
36748;BME280;22716;51.556;5.080;2023-03-03T02:19:42;101723.28;;;1.93;100.00
36748;BME280;22716;51.556;5.080;2023-03-03T02:22:20;101724.06;;;1.90;100.00
36748;BME280;22716;51.556;5.080;2023-03-03T02:24:53;101724.09;;;1.92;100.00
36748;BME280;22716;51.556;5.080;2023-03-03T02:27:27;101732.69;;;1.91;100.00
36748;BME280;22716;51.556;5.080;2023-03-03T02:30:08;101735.88;;;1.85;100.00
36748;BME280;22716;51.556;5.080;2023-03-03T02:32:38;101728.25;;;1.88;100.00
36748;BME280;22716;51.556;5.080;2023-03-03T02:35:26;101702.72;;;1.74;100.00
36748;BME280;22716;51.556;5.080;2023-03-03T02:38:01;101720.63;;;1.91;100.00
36748;BME280;22716;51.556;5.080;2023-03-03T02:40:35;101725.09;;;1.95;100.00
36748;BME280;22716;51.556;5.080;2023-03-03T02:43:09;101727.72;;;1.97;100.00
36748;BME280;22716;51.556;5.080;2023-03-03T02:45:43;101726.03;;;1.97;100.00
36748;BME280;22716;51.556;5.080;2023-03-03T02:48:12;101719.03;;;1.95;100.00
36748;BME280;22716;51.556;5.080;2023-03-03T02:50:40;101709.53;;;1.94;100.00
36748;BME280;22716;51.556;5.080;2023-03-03T02:53:09;101728.03;;;2.04;100.00
36748;BME280;22716;51.556;5.080;2023-03-03T02:55:38;101720.84;;;1.97;100.00
36748;BME280;22716;51.556;5.080;2023-03-03T02:58:09;101723.50;;;1.99;100.00
36748;BME280;22716;51.556;5.080;2023-03-03T03:00:38;101732.16;;;1.99;100.00
36748;BME280;22716;51.556;5.080;2023-03-03T03:03:06;101730.53;;;2.03;100.00
36748;BME280;22716;51.556;5.080;2023-03-03T03:05:35;101725.56;;;2.07;100.00
36748;BME280;22716;51.556;5.080;2023-03-03T03:08:04;101743.88;;;2.13;100.00
36748;BME280;22716;51.556;5.080;2023-03-03T03:10:33;101729.16;;;2.11;100.00
36748;BME280;22716;51.556;5.080;2023-03-03T03:13:02;101724.84;;;2.11;100.00
36748;BME280;22716;51.556;5.080;2023-03-03T03:15:34;101735.25;;;2.13;100.00
36748;BME280;22716;51.556;5.080;2023-03-03T03:18:03;101728.91;;;2.05;100.00
36748;BME280;22716;51.556;5.080;2023-03-03T03:20:35;101736.69;;;2.05;100.00
36748;BME280;22716;51.556;5.080;2023-03-03T03:23:04;101730.63;;;2.04;100.00
36748;BME280;22716;51.556;5.080;2023-03-03T03:25:33;101732.38;;;2.05;100.00
36748;BME280;22716;51.556;5.080;2023-03-03T03:28:07;101737.38;;;2.01;100.00
36748;BME280;22716;51.556;5.080;2023-03-03T03:30:38;101745.81;;;1.97;100.00
36748;BME280;22716;51.556;5.080;2023-03-03T03:33:08;101744.47;;;2.06;100.00
36748;BME280;22716;51.556;5.080;2023-03-03T03:35:37;101719.41;;;2.04;100.00
36748;BME280;22716;51.556;5.080;2023-03-03T03:38:12;101741.47;;;2.18;100.00
36748;BME280;22716;51.556;5.080;2023-03-03T03:40:41;101746.00;;;2.01;100.00
36748;BME280;22716;51.556;5.080;2023-03-03T03:43:10;101745.72;;;1.94;100.00
36748;BME280;22716;51.556;5.080;2023-03-03T03:45:43;101745.28;;;1.83;100.00
36748;BME280;22716;51.556;5.080;2023-03-03T03:48:12;101735.31;;;1.70;100.00
36748;BME280;22716;51.556;5.080;2023-03-03T03:50:41;101751.00;;;1.75;100.00
36748;BME280;22716;51.556;5.080;2023-03-03T03:53:10;101750.28;;;1.79;100.00
36748;BME280;22716;51.556;5.080;2023-03-03T03:55:39;101750.66;;;1.88;100.00
36748;BME280;22716;51.556;5.080;2023-03-03T03:58:08;101746.22;;;1.85;100.00
36748;BME280;22716;51.556;5.080;2023-03-03T04:00:39;101746.81;;;1.78;100.00
36748;BME280;22716;51.556;5.080;2023-03-03T04:03:11;101737.91;;;1.70;100.00
36748;BME280;22716;51.556;5.080;2023-03-03T04:05:40;101750.34;;;1.80;100.00
36748;BME280;22716;51.556;5.080;2023-03-03T04:08:09;101749.41;;;1.78;100.00
36748;BME280;22716;51.556;5.080;2023-03-03T04:10:38;101748.66;;;1.81;100.00
36748;BME280;22716;51.556;5.080;2023-03-03T04:13:06;101761.56;;;1.81;100.00
36748;BME280;22716;51.556;5.080;2023-03-03T04:15:35;101760.28;;;1.69;100.00
36748;BME280;22716;51.556;5.080;2023-03-03T04:18:05;101744.66;;;1.66;100.00
36748;BME280;22716;51.556;5.080;2023-03-03T04:20:36;101754.97;;;1.66;100.00
36748;BME280;22716;51.556;5.080;2023-03-03T04:23:07;101743.75;;;1.66;100.00
36748;BME280;22716;51.556;5.080;2023-03-03T04:25:35;101759.38;;;1.69;100.00
36748;BME280;22716;51.556;5.080;2023-03-03T04:28:04;101759.19;;;1.64;100.00
36748;BME280;22716;51.556;5.080;2023-03-03T04:30:35;101765.56;;;1.73;100.00
36748;BME280;22716;51.556;5.080;2023-03-03T04:33:04;101769.06;;;1.75;100.00
36748;BME280;22716;51.556;5.080;2023-03-03T04:35:32;101760.63;;;1.79;100.00
36748;BME280;22716;51.556;5.080;2023-03-03T04:38:04;101767.28;;;1.74;100.00
36748;BME280;22716;51.556;5.080;2023-03-03T04:40:33;101763.41;;;1.62;100.00
36748;BME280;22716;51.556;5.080;2023-03-03T04:43:02;101771.25;;;1.64;100.00
36748;BME280;22716;51.556;5.080;2023-03-03T04:45:30;101770.34;;;1.63;100.00
36748;BME280;22716;51.556;5.080;2023-03-03T04:47:59;101769.59;;;1.66;100.00
36748;BME280;22716;51.556;5.080;2023-03-03T04:50:28;101777.59;;;1.72;100.00
36748;BME280;22716;51.556;5.080;2023-03-03T04:52:56;101762.00;;;1.70;100.00
36748;BME280;22716;51.556;5.080;2023-03-03T04:55:28;101772.28;;;1.69;100.00
36748;BME280;22716;51.556;5.080;2023-03-03T04:57:56;101764.34;;;1.64;100.00
36748;BME280;22716;51.556;5.080;2023-03-03T05:00:25;101784.31;;;1.68;100.00
36748;BME280;22716;51.556;5.080;2023-03-03T05:02:54;101775.00;;;1.72;100.00
36748;BME280;22716;51.556;5.080;2023-03-03T05:05:22;101777.84;;;1.78;100.00
36748;BME280;22716;51.556;5.080;2023-03-03T05:07:51;101776.13;;;1.79;100.00
36748;BME280;22716;51.556;5.080;2023-03-03T05:10:20;101776.91;;;1.76;100.00
36748;BME280;22716;51.556;5.080;2023-03-03T05:12:51;101780.53;;;1.81;100.00
36748;BME280;22716;51.556;5.080;2023-03-03T05:15:20;101783.94;;;1.80;100.00
36748;BME280;22716;51.556;5.080;2023-03-03T05:17:49;101776.78;;;1.73;100.00
36748;BME280;22716;51.556;5.080;2023-03-03T05:20:18;101771.38;;;1.67;100.00
36748;BME280;22716;51.556;5.080;2023-03-03T05:22:47;101779.97;;;1.67;100.00
36748;BME280;22716;51.556;5.080;2023-03-03T05:25:16;101783.81;;;1.77;100.00
36748;BME280;22716;51.556;5.080;2023-03-03T05:27:44;101783.16;;;1.83;100.00
36748;BME280;22716;51.556;5.080;2023-03-03T05:30:16;101785.59;;;1.78;100.00
36748;BME280;22716;51.556;5.080;2023-03-03T05:32:45;101788.16;;;1.78;100.00
36748;BME280;22716;51.556;5.080;2023-03-03T05:35:14;101764.25;;;1.61;100.00
36748;BME280;22716;51.556;5.080;2023-03-03T05:37:44;101782.81;;;1.74;100.00
36748;BME280;22716;51.556;5.080;2023-03-03T05:40:14;101783.44;;;1.68;100.00
36748;BME280;22716;51.556;5.080;2023-03-03T05:42:43;101788.56;;;1.66;100.00
36748;BME280;22716;51.556;5.080;2023-03-03T05:45:12;101787.69;;;1.66;100.00
36748;BME280;22716;51.556;5.080;2023-03-03T05:47:43;101786.22;;;1.73;100.00
36748;BME280;22716;51.556;5.080;2023-03-03T05:50:13;101796.03;;;1.81;100.00
36748;BME280;22716;51.556;5.080;2023-03-03T05:52:41;101792.50;;;1.79;100.00
36748;BME280;22716;51.556;5.080;2023-03-03T05:55:10;101787.28;;;1.78;100.00
36748;BME280;22716;51.556;5.080;2023-03-03T05:57:39;101797.78;;;1.82;100.00
36748;BME280;22716;51.556;5.080;2023-03-03T06:00:10;101801.38;;;1.86;100.00
36748;BME280;22716;51.556;5.080;2023-03-03T06:02:39;101799.38;;;1.79;100.00
36748;BME280;22716;51.556;5.080;2023-03-03T06:05:11;101791.38;;;1.73;100.00
36748;BME280;22716;51.556;5.080;2023-03-03T06:07:39;101799.69;;;1.86;100.00
36748;BME280;22716;51.556;5.080;2023-03-03T06:10:10;101802.16;;;1.83;100.00
36748;BME280;22716;51.556;5.080;2023-03-03T06:12:39;101809.91;;;1.83;100.00
36748;BME280;22716;51.556;5.080;2023-03-03T06:15:09;101807.31;;;1.83;100.00
36748;BME280;22716;51.556;5.080;2023-03-03T06:17:38;101811.78;;;1.87;100.00
36748;BME280;22716;51.556;5.080;2023-03-03T06:20:11;101810.09;;;1.88;100.00
36748;BME280;22716;51.556;5.080;2023-03-03T06:22:40;101814.38;;;1.87;100.00
36748;BME280;22716;51.556;5.080;2023-03-03T06:25:09;101810.13;;;1.89;100.00
36748;BME280;22716;51.556;5.080;2023-03-03T06:27:38;101807.44;;;1.86;100.00
36748;BME280;22716;51.556;5.080;2023-03-03T06:30:09;101819.19;;;2.00;100.00
36748;BME280;22716;51.556;5.080;2023-03-03T06:32:38;101818.31;;;2.00;100.00
36748;BME280;22716;51.556;5.080;2023-03-03T06:35:07;101820.84;;;1.98;100.00
36748;BME280;22716;51.556;5.080;2023-03-03T06:37:38;101826.41;;;1.87;100.00
36748;BME280;22716;51.556;5.080;2023-03-03T06:40:09;101835.34;;;1.95;100.00
36748;BME280;22716;51.556;5.080;2023-03-03T06:42:38;101839.94;;;2.02;100.00
36748;BME280;22716;51.556;5.080;2023-03-03T06:45:08;101837.53;;;2.06;100.00
36748;BME280;22716;51.556;5.080;2023-03-03T06:47:37;101835.97;;;2.10;100.00
36748;BME280;22716;51.556;5.080;2023-03-03T06:50:07;101838.69;;;2.14;100.00
36748;BME280;22716;51.556;5.080;2023-03-03T06:52:38;101847.59;;;2.21;100.00
36748;BME280;22716;51.556;5.080;2023-03-03T06:55:13;101851.84;;;2.19;100.00
36748;BME280;22716;51.556;5.080;2023-03-03T06:57:44;101849.56;;;2.06;100.00
36748;BME280;22716;51.556;5.080;2023-03-03T07:00:17;101853.81;;;2.04;100.00
36748;BME280;22716;51.556;5.080;2023-03-03T07:02:47;101853.94;;;2.07;100.00
36748;BME280;22716;51.556;5.080;2023-03-03T07:05:26;101844.22;;;2.01;100.00
36748;BME280;22716;51.556;5.080;2023-03-03T07:07:58;101853.38;;;2.14;100.00
36748;BME280;22716;51.556;5.080;2023-03-03T07:10:28;101865.69;;;2.21;100.00
36748;BME280;22716;51.556;5.080;2023-03-03T07:13:13;101849.00;;;2.13;100.00
36748;BME280;22716;51.556;5.080;2023-03-03T07:15:44;101869.84;;;2.17;100.00
36748;BME280;22716;51.556;5.080;2023-03-03T07:18:36;101857.13;;;2.22;100.00
36748;BME280;22716;51.556;5.080;2023-03-03T07:21:15;101864.06;;;2.23;100.00
36748;BME280;22716;51.556;5.080;2023-03-03T07:23:48;101871.94;;;2.26;100.00
36748;BME280;22716;51.556;5.080;2023-03-03T07:26:20;101872.88;;;2.28;100.00
36748;BME280;22716;51.556;5.080;2023-03-03T07:28:53;101873.66;;;2.25;100.00
36748;BME280;22716;51.556;5.080;2023-03-03T07:31:30;101869.38;;;2.26;100.00
36748;BME280;22716;51.556;5.080;2023-03-03T07:34:11;101880.00;;;2.34;100.00
36748;BME280;22716;51.556;5.080;2023-03-03T07:36:42;101876.59;;;2.35;100.00
36748;BME280;22716;51.556;5.080;2023-03-03T07:39:23;101887.19;;;2.41;100.00
36748;BME280;22716;51.556;5.080;2023-03-03T07:41:56;101883.34;;;2.31;100.00
36748;BME280;22716;51.556;5.080;2023-03-03T07:44:32;101892.00;;;2.32;100.00
36748;BME280;22716;51.556;5.080;2023-03-03T07:47:14;101890.25;;;2.32;100.00
36748;BME280;22716;51.556;5.080;2023-03-03T07:49:43;101898.88;;;2.31;100.00
36748;BME280;22716;51.556;5.080;2023-03-03T07:52:25;101880.28;;;2.19;100.00
36748;BME280;22716;51.556;5.080;2023-03-03T07:55:00;101891.78;;;2.27;100.00
36748;BME280;22716;51.556;5.080;2023-03-03T07:57:34;101896.97;;;2.27;100.00
36748;BME280;22716;51.556;5.080;2023-03-03T08:03:15;101903.78;;;2.25;100.00
36748;BME280;22716;51.556;5.080;2023-03-03T08:05:46;101907.50;;;2.32;100.00
36748;BME280;22716;51.556;5.080;2023-03-03T08:08:29;101913.53;;;2.32;100.00
36748;BME280;22716;51.556;5.080;2023-03-03T08:11:01;101908.44;;;2.34;100.00
36748;BME280;22716;51.556;5.080;2023-03-03T08:13:36;101914.78;;;2.42;100.00
36748;BME280;22716;51.556;5.080;2023-03-03T08:16:24;101912.28;;;2.43;100.00
36748;BME280;22716;51.556;5.080;2023-03-03T08:19:01;101917.56;;;2.46;100.00
36748;BME280;22716;51.556;5.080;2023-03-03T08:21:34;101905.09;;;2.36;100.00
36748;BME280;22716;51.556;5.080;2023-03-03T08:24:04;101927.19;;;2.50;100.00
36748;BME280;22716;51.556;5.080;2023-03-03T08:26:36;101931.59;;;2.53;100.00
36748;BME280;22716;51.556;5.080;2023-03-03T08:29:05;101928.41;;;2.58;100.00
36748;BME280;22716;51.556;5.080;2023-03-03T08:31:34;101921.22;;;2.51;100.00
36748;BME280;22716;51.556;5.080;2023-03-03T08:34:02;101929.34;;;2.60;100.00
36748;BME280;22716;51.556;5.080;2023-03-03T08:36:32;101929.22;;;2.57;100.00
36748;BME280;22716;51.556;5.080;2023-03-03T08:39:01;101928.69;;;2.66;100.00
36748;BME280;22716;51.556;5.080;2023-03-03T08:41:30;101928.84;;;2.70;100.00
36748;BME280;22716;51.556;5.080;2023-03-03T08:44:01;101934.91;;;2.71;100.00
36748;BME280;22716;51.556;5.080;2023-03-03T08:46:30;101935.44;;;2.62;100.00
36748;BME280;22716;51.556;5.080;2023-03-03T08:48:59;101934.44;;;2.59;100.00
36748;BME280;22716;51.556;5.080;2023-03-03T08:51:28;101936.97;;;2.57;100.00
36748;BME280;22716;51.556;5.080;2023-03-03T08:53:58;101932.72;;;2.59;100.00
36748;BME280;22716;51.556;5.080;2023-03-03T08:56:27;101938.03;;;2.62;100.00
36748;BME280;22716;51.556;5.080;2023-03-03T08:58:56;101941.53;;;2.64;100.00
36748;BME280;22716;51.556;5.080;2023-03-03T09:01:27;101941.63;;;2.66;100.00
36748;BME280;22716;51.556;5.080;2023-03-03T09:03:56;101952.88;;;2.66;100.00
36748;BME280;22716;51.556;5.080;2023-03-03T09:06:25;101963.63;;;2.77;100.00
36748;BME280;22716;51.556;5.080;2023-03-03T09:08:54;101959.44;;;2.80;100.00
36748;BME280;22716;51.556;5.080;2023-03-03T09:11:25;101952.44;;;2.78;100.00
36748;BME280;22716;51.556;5.080;2023-03-03T09:14:01;101962.31;;;2.88;100.00
36748;BME280;22716;51.556;5.080;2023-03-03T09:16:38;101942.03;;;2.76;100.00
36748;BME280;22716;51.556;5.080;2023-03-03T09:19:21;101961.91;;;3.00;100.00
36748;BME280;22716;51.556;5.080;2023-03-03T09:21:52;101966.50;;;3.07;100.00
36748;BME280;22716;51.556;5.080;2023-03-03T09:24:26;101969.78;;;3.03;100.00
36748;BME280;22716;51.556;5.080;2023-03-03T09:26:56;101966.97;;;2.97;100.00
36748;BME280;22716;51.556;5.080;2023-03-03T09:29:27;101966.03;;;2.95;100.00
36748;BME280;22716;51.556;5.080;2023-03-03T09:32:21;101965.34;;;2.99;100.00
36748;BME280;22716;51.556;5.080;2023-03-03T09:34:49;101959.97;;;3.16;100.00
36748;BME280;22716;51.556;5.080;2023-03-03T09:37:21;101960.84;;;3.17;100.00
36748;BME280;22716;51.556;5.080;2023-03-03T09:39:51;101964.06;;;3.11;100.00
36748;BME280;22716;51.556;5.080;2023-03-03T09:42:37;101967.78;;;3.18;100.00
36748;BME280;22716;51.556;5.080;2023-03-03T09:45:35;101966.16;;;3.20;100.00
36748;BME280;22716;51.556;5.080;2023-03-03T09:48:25;101975.41;;;3.37;100.00
36748;BME280;22716;51.556;5.080;2023-03-03T09:51:11;101973.75;;;3.39;100.00
36748;BME280;22716;51.556;5.080;2023-03-03T09:53:52;101974.78;;;3.44;100.00
36748;BME280;22716;51.556;5.080;2023-03-03T09:56:31;101974.09;;;3.48;100.00
36748;BME280;22716;51.556;5.080;2023-03-03T09:59:15;101977.50;;;3.47;100.00
36748;BME280;22716;51.556;5.080;2023-03-03T10:01:54;101977.56;;;3.49;100.00
36748;BME280;22716;51.556;5.080;2023-03-03T10:04:43;101977.38;;;3.44;100.00
36748;BME280;22716;51.556;5.080;2023-03-03T10:07:32;101992.22;;;3.48;100.00
36748;BME280;22716;51.556;5.080;2023-03-03T10:10:22;101981.34;;;3.58;100.00
36748;BME280;22716;51.556;5.080;2023-03-03T10:13:06;101977.81;;;3.56;100.00
36748;BME280;22716;51.556;5.080;2023-03-03T10:15:46;101979.94;;;3.66;100.00
36748;BME280;22716;51.556;5.080;2023-03-03T10:18:24;101975.09;;;3.77;100.00
36748;BME280;22716;51.556;5.080;2023-03-03T10:21:08;101961.81;;;3.68;100.00
36748;BME280;22716;51.556;5.080;2023-03-03T10:23:52;101971.03;;;3.83;100.00
36748;BME280;22716;51.556;5.080;2023-03-03T10:26:47;101986.38;;;4.03;100.00
36748;BME280;22716;51.556;5.080;2023-03-03T10:29:34;101986.66;;;4.10;100.00
36748;BME280;22716;51.556;5.080;2023-03-03T10:32:29;101983.38;;;4.16;100.00
36748;BME280;22716;51.556;5.080;2023-03-03T10:35:29;101990.78;;;4.30;100.00
36748;BME280;22716;51.556;5.080;2023-03-03T10:38:25;101979.78;;;4.12;100.00
36748;BME280;22716;51.556;5.080;2023-03-03T10:41:10;101985.03;;;4.14;100.00
36748;BME280;22716;51.556;5.080;2023-03-03T10:44:03;101975.50;;;4.13;100.00
36748;BME280;22716;51.556;5.080;2023-03-03T10:46:48;101981.19;;;4.28;100.00
36748;BME280;22716;51.556;5.080;2023-03-03T10:49:35;101974.66;;;4.40;100.00
36748;BME280;22716;51.556;5.080;2023-03-03T10:52:25;101986.13;;;4.47;100.00
36748;BME280;22716;51.556;5.080;2023-03-03T10:55:15;101986.09;;;4.45;100.00
36748;BME280;22716;51.556;5.080;2023-03-03T10:57:54;101984.72;;;4.30;100.00
36748;BME280;22716;51.556;5.080;2023-03-03T11:00:28;101981.28;;;4.31;100.00
36748;BME280;22716;51.556;5.080;2023-03-03T11:03:18;101975.03;;;4.26;100.00
36748;BME280;22716;51.556;5.080;2023-03-03T11:05:57;101972.66;;;4.32;100.00
36748;BME280;22716;51.556;5.080;2023-03-03T11:08:33;101979.94;;;4.43;100.00
36748;BME280;22716;51.556;5.080;2023-03-03T11:11:14;101964.69;;;4.52;100.00
36748;BME280;22716;51.556;5.080;2023-03-03T11:13:50;101981.19;;;4.81;100.00
36748;BME280;22716;51.556;5.080;2023-03-03T11:16:44;101973.75;;;4.93;100.00
36748;BME280;22716;51.556;5.080;2023-03-03T11:19:37;101961.03;;;5.02;100.00
36748;BME280;22716;51.556;5.080;2023-03-03T11:22:17;101956.97;;;5.11;100.00
36748;BME280;22716;51.556;5.080;2023-03-03T11:24:59;101971.63;;;5.38;100.00
36748;BME280;22716;51.556;5.080;2023-03-03T11:27:47;101968.47;;;5.48;100.00
36748;BME280;22716;51.556;5.080;2023-03-03T11:30:30;101967.44;;;5.43;100.00
36748;BME280;22716;51.556;5.080;2023-03-03T11:33:05;101967.44;;;5.43;100.00
36748;BME280;22716;51.556;5.080;2023-03-03T11:35:40;101966.94;;;5.56;100.00
36748;BME280;22716;51.556;5.080;2023-03-03T11:38:30;101958.69;;;5.71;100.00
36748;BME280;22716;51.556;5.080;2023-03-03T11:41:05;101962.69;;;5.90;100.00
36748;BME280;22716;51.556;5.080;2023-03-03T11:43:42;101966.38;;;5.98;100.00
36748;BME280;22716;51.556;5.080;2023-03-03T11:46:14;101958.16;;;6.15;100.00
36748;BME280;22716;51.556;5.080;2023-03-03T11:48:51;101963.66;;;6.28;100.00
36748;BME280;22716;51.556;5.080;2023-03-03T11:51:31;101949.03;;;6.33;100.00
36748;BME280;22716;51.556;5.080;2023-03-03T11:54:06;101960.03;;;6.57;100.00
36748;BME280;22716;51.556;5.080;2023-03-03T11:56:40;101961.00;;;6.62;100.00
36748;BME280;22716;51.556;5.080;2023-03-03T11:59:37;101958.56;;;6.69;100.00
36748;BME280;22716;51.556;5.080;2023-03-03T12:02:20;101954.19;;;6.67;100.00
36748;BME280;22716;51.556;5.080;2023-03-03T12:04:53;101952.50;;;6.69;100.00
36748;BME280;22716;51.556;5.080;2023-03-03T12:07:29;101951.03;;;6.80;100.00
36748;BME280;22716;51.556;5.080;2023-03-03T12:10:16;101949.53;;;6.91;100.00
36748;BME280;22716;51.556;5.080;2023-03-03T12:12:51;101947.06;;;6.97;99.54
36748;BME280;22716;51.556;5.080;2023-03-03T12:15:32;101937.59;;;7.02;99.15
36748;BME280;22716;51.556;5.080;2023-03-03T12:21:08;101937.59;;;7.01;98.10
36748;BME280;22716;51.556;5.080;2023-03-03T12:23:51;101937.53;;;6.99;98.71
36748;BME280;22716;51.556;5.080;2023-03-03T12:26:27;101940.13;;;6.98;98.41
36748;BME280;22716;51.556;5.080;2023-03-03T12:29:05;101935.59;;;6.89;98.13
36748;BME280;22716;51.556;5.080;2023-03-03T12:31:50;101938.94;;;6.84;98.17
36748;BME280;22716;51.556;5.080;2023-03-03T12:34:25;101933.56;;;6.76;98.28
36748;BME280;22716;51.556;5.080;2023-03-03T12:37:10;101924.09;;;6.80;98.12
36748;BME280;22716;51.556;5.080;2023-03-03T12:39:55;101919.63;;;6.75;98.01
36748;BME280;22716;51.556;5.080;2023-03-03T12:42:37;101929.28;;;6.78;97.60
36748;BME280;22716;51.556;5.080;2023-03-03T12:45:21;101928.13;;;6.67;97.08
36748;BME280;22716;51.556;5.080;2023-03-03T12:47:59;101902.84;;;6.61;96.90
36748;BME280;22716;51.556;5.080;2023-03-03T12:50:36;101917.03;;;6.74;97.26
36748;BME280;22716;51.556;5.080;2023-03-03T12:53:17;101917.28;;;6.86;97.10
36748;BME280;22716;51.556;5.080;2023-03-03T12:55:52;101908.94;;;7.02;96.85
36748;BME280;22716;51.556;5.080;2023-03-03T12:58:37;101921.31;;;7.12;96.78
36748;BME280;22716;51.556;5.080;2023-03-03T13:01:23;101924.00;;;7.15;97.09
36748;BME280;22716;51.556;5.080;2023-03-03T13:04:03;101920.38;;;7.09;97.96
36748;BME280;22716;51.556;5.080;2023-03-03T13:06:39;101920.38;;;7.09;98.53
36748;BME280;22716;51.556;5.080;2023-03-03T13:09:29;101927.03;;;6.96;99.01
36748;BME280;22716;51.556;5.080;2023-03-03T13:12:13;101921.50;;;6.81;99.30
36748;BME280;22716;51.556;5.080;2023-03-03T13:14:51;101916.19;;;6.75;99.61
36748;BME280;22716;51.556;5.080;2023-03-03T13:17:26;101918.00;;;6.79;99.28
36748;BME280;22716;51.556;5.080;2023-03-03T13:20:04;101915.63;;;6.90;99.06
36748;BME280;22716;51.556;5.080;2023-03-03T13:22:37;101911.53;;;7.01;98.58
36748;BME280;22716;51.556;5.080;2023-03-03T13:25:21;101925.50;;;7.04;97.97
36748;BME280;22716;51.556;5.080;2023-03-03T13:27:59;101909.13;;;7.11;97.33
36748;BME280;22716;51.556;5.080;2023-03-03T13:30:32;101916.19;;;7.15;97.63
36748;BME280;22716;51.556;5.080;2023-03-03T13:33:09;101913.69;;;7.21;97.10
36748;BME280;22716;51.556;5.080;2023-03-03T13:35:44;101917.44;;;7.36;96.15